Main page
METAR-TAF:

METAR-TAF

Airports :

Treviso, Italy

Treviso Airport

latitude: 45-39N, longitude: 012-11E, elevation: 18 m

Current weather observation

The report was made 22 minutes ago, at 21:50 UTC
Wind 4 kt from the South, varying between South/Southeast and South/Southwest
Temperature 18°C
Humidity 88%
Pressure 1016 hPa
Visibility: 8000 m
Scattered clouds at a height of 4000 ft, Cumulonimbus.
Broken clouds at a height of 7000 ft
thunderstorm, light rain

METAR: LIPH 192150Z 18004KT 150V210 8000 -TSRA SCT040CB BKN070 18/16 Q1016

Time: 00:12 (22:12 UTC)

Forecast

The report was made 5 hours and 12 minutes ago, at 17:00 UTC
Forecast valid from 19 at 18 UTC to 20 at 18 UTC
Wind 8 kt from the Northeast
Visibility 10 km or more
Scattered clouds at a height of 3000 ft
Temporary
from 19 at 18 UTC to 20 at 03 UTC
thunderstorm, rain

TAF: LIPH 191700Z 1918/2018 04008KT 9999 SCT030 TEMPO 1918/2003 TSRA

Weather observations and forecasts of more than 4000 airports (METAR and TAF reports).

The available stations are represented by yellow and red dots on the map.

Hover mouse over dot to see the name of the station.

Then click to see weather observations and forecasts.

To change the map : click on the green buttons with a black cross to zoom in, on the green button with a dash to zoom out, or on the green arrows for adjacent maps.


METAR-TAF: